createdAt,value
2023-03-29T07:46:58.791Z,639.00
2023-03-29T09:14:56.632Z,974.00
2023-03-29T09:22:56.277Z,955.00
2023-03-29T09:26:58.144Z,931.00
2023-03-29T09:34:56.129Z,917.00
2023-03-29T09:42:55.944Z,871.00
2023-03-29T09:50:56.615Z,829.00
2023-03-29T09:58:56.134Z,833.00
2023-03-29T10:06:55.619Z,817.00
2023-03-29T10:10:56.648Z,868.00
2023-03-29T10:14:56.627Z,868.00
2023-03-29T10:18:56.109Z,887.00
2023-03-29T10:22:56.159Z,882.00
2023-03-29T10:26:56.162Z,852.00
2023-03-29T10:34:55.627Z,863.00
2023-03-29T10:38:56.423Z,874.00
2023-03-29T10:42:56.675Z,871.00
2023-03-29T10:46:56.638Z,882.00
2023-03-29T10:50:57.146Z,892.00
2023-03-29T10:54:57.166Z,903.00
2023-03-29T10:58:57.164Z,884.00
2023-03-29T11:02:57.251Z,898.00
2023-03-29T11:06:57.146Z,877.00
2023-03-29T11:10:57.142Z,878.00
2023-03-29T11:14:57.184Z,878.00
2023-03-29T11:22:56.645Z,881.00
2023-03-29T11:30:56.498Z,678.00
2023-03-29T11:38:56.650Z,622.00
2023-03-29T11:46:56.530Z,623.00
2023-03-29T11:54:56.465Z,627.00
2023-03-29T12:02:56.793Z,640.00
2023-03-29T12:06:57.159Z,669.00
2023-03-29T12:10:57.174Z,683.00
2023-03-29T12:14:57.169Z,746.00
2023-03-29T12:18:57.208Z,763.00
2023-03-29T12:22:57.169Z,776.00
2023-03-29T12:26:57.077Z,789.00
2023-03-29T12:30:57.173Z,812.00
2023-03-29T12:34:57.705Z,834.00
2023-03-29T12:38:57.682Z,848.00
2023-03-29T12:42:57.687Z,850.00
2023-03-29T12:46:57.493Z,867.00
2023-03-29T12:50:57.720Z,852.00
2023-03-29T12:54:57.685Z,826.00
2023-03-29T12:58:57.691Z,723.00
2023-03-29T13:06:56.717Z,677.00
2023-03-29T13:14:56.190Z,613.00
2023-03-29T13:22:56.222Z,579.00
2023-03-29T13:26:57.237Z,553.00
2023-03-29T13:30:56.840Z,538.00
2023-03-29T13:34:56.687Z,531.00
2023-03-29T13:38:56.620Z,521.00
2023-03-29T13:42:56.519Z,512.00
2023-03-29T13:46:56.740Z,509.00
2023-03-29T13:50:56.712Z,495.00
2023-03-29T13:54:56.249Z,490.00
2023-03-29T13:58:56.206Z,487.00
2023-03-29T14:02:56.277Z,480.00
2023-03-29T14:06:56.224Z,476.00
2023-03-29T14:10:56.271Z,472.00
2023-03-29T14:14:59.323Z,470.00
2023-03-29T14:18:55.711Z,466.00
2023-03-29T14:22:55.731Z,464.00
2023-03-29T14:26:55.363Z,456.00
2023-03-29T14:30:55.219Z,449.00
2023-03-29T14:34:56.213Z,443.00
2023-03-29T14:38:55.721Z,444.00
2023-03-29T14:42:55.745Z,440.00
2023-03-29T14:46:55.733Z,438.00
2023-03-29T14:50:55.442Z,433.00
2023-03-29T14:54:55.726Z,426.00
2023-03-29T14:58:55.548Z,433.00
2023-03-29T15:02:55.692Z,428.00
2023-03-29T15:06:55.735Z,424.00
2023-03-29T15:10:55.712Z,422.00
2023-03-29T15:14:55.812Z,430.00
2023-03-29T15:18:55.889Z,430.00
2023-03-29T15:22:56.233Z,433.00
2023-03-29T15:26:56.030Z,429.00
2023-03-29T15:31:07.297Z,437.00
2023-03-29T15:34:56.006Z,438.00
2023-03-29T15:38:55.885Z,442.00
2023-03-29T15:46:54.736Z,431.00
2023-03-29T15:50:55.564Z,433.00
2023-03-29T15:54:55.750Z,430.00
2023-03-29T15:58:55.377Z,430.00
2023-03-29T16:02:55.308Z,432.00
2023-03-29T16:06:55.175Z,432.00
2023-03-29T16:10:55.068Z,431.00
2023-03-29T16:14:54.979Z,433.00
2023-03-29T16:18:54.888Z,431.00
2023-03-29T16:22:54.751Z,427.00
2023-03-29T16:26:55.917Z,429.00
2023-03-29T16:30:54.796Z,436.00
2023-03-29T16:34:54.913Z,431.00
2023-03-29T16:38:54.941Z,428.00
2023-03-29T16:42:55.030Z,426.00
2023-03-29T16:46:55.125Z,423.00
2023-03-29T16:50:55.330Z,427.00
2023-03-29T16:54:55.299Z,427.00
2023-03-29T16:58:55.397Z,424.00
2023-03-29T17:02:55.491Z,424.00
2023-03-29T17:06:55.601Z,425.00
2023-03-29T17:10:55.734Z,426.00
2023-03-29T17:14:55.769Z,425.00
2023-03-29T17:18:55.874Z,428.00
2023-03-29T17:22:56.031Z,430.00
2023-03-29T17:26:55.902Z,425.00
2023-03-29T17:30:56.051Z,434.00
2023-03-29T17:34:56.068Z,425.00
2023-03-29T17:42:55.343Z,424.00
2023-03-29T17:50:55.597Z,423.00
2023-03-29T17:58:55.895Z,427.00
2023-03-29T18:06:56.154Z,427.00
2023-03-29T18:14:56.416Z,423.00
2023-03-29T18:22:56.708Z,418.00
2023-03-29T18:42:56.841Z,435.00
2023-03-29T18:50:56.829Z,428.00
2023-03-29T18:58:56.855Z,422.00
2023-03-29T19:06:56.933Z,423.00
2023-03-29T19:14:57.211Z,424.00
2023-03-29T23:07:00.398Z,428.00
